Marion Station, Maryland
Current Conditions -  °F | °C
As of 11:54 PM on Sunday 21 Dec 2014 (Local Time) from KWAL Reporting Station
Scattered Clouds Scattered Clouds  
Wind Chill: 26°   Ceiling: Unl
Heat Index: 32°   Visibility: 7mi
Dew Point: 26°   Wind: 6mph
Humidity: 79%   Direction: 360°N
Pressure: 30.31"   Gusts: NA
Location:  38.03°N, 75.76°W
Report Text: KWAL 220454Z AUTO 36005KT 7SM SCT050 00/M03 A3031 RMK AO2 SLP261 T00001033 400671022
Loading
Personal Weather Stations






























Interactive Weather Map New forecast layout! Learn more

10-Day Weather Forecast

Advertisements
Track Severe Weather on mobile